Time;durP1;ratioP1;P1;durP2;ratioP2;P2;SDS_P1;SDS_P2;PMS_P1;PMS_P2;Temp;Humidity;BMP_temperature;BMP_pressure;BME280_temperature;BME280_humidity;BME280_pressure;Samples;Min_cycle;Max_cycle;Signal;HPM_P1;HPM_P2
2023/08/06 00:01:09;;;;;;;33.13;16.15;;;;;16.50;95551.00;;;;8305021;28;20301;-65
2023/08/06 00:05:13;;;;;;;36.60;16.98;;;;;16.50;95548.00;;;;8301860;28;20222;-65
2023/08/06 00:09:18;;;;;;;33.45;15.35;;;;;16.50;95547.00;;;;8285036;28;20664;-65
2023/08/06 00:13:21;;;;;;;40.20;16.27;;;;;16.50;95563.00;;;;8302355;28;20205;-65
2023/08/06 00:17:24;;;;;;;9.15;4.25;;;;;16.10;95545.00;;;;8303860;28;20608;-65
2023/08/06 00:21:32;;;;;;;16.23;7.95;;;;;15.60;95553.00;;;;8304187;28;20194;-64
2023/08/06 00:25:35;;;;;;;17.88;8.63;;;;;15.80;95560.00;;;;8303211;28;20236;-67
2023/08/06 00:29:41;;;;;;;20.15;9.30;;;;;16.00;95548.00;;;;8304329;28;20260;-66
2023/08/06 00:33:44;;;;;;;17.58;8.15;;;;;16.10;95552.00;;;;8302567;28;20214;-66
2023/08/06 00:37:50;;;;;;;19.38;9.70;;;;;16.20;95573.00;;;;8304279;28;20229;-65
2023/08/06 00:41:55;;;;;;;14.82;7.03;;;;;16.20;95565.00;;;;8301669;28;20205;-65
2023/08/06 00:45:59;;;;;;;9.85;5.90;;;;;16.10;95562.00;;;;8302950;28;20194;-65
2023/08/06 00:50:03;;;;;;;12.20;5.38;;;;;16.00;95561.00;;;;8303998;28;20602;-66
2023/08/06 00:54:08;;;;;;;9.40;5.47;;;;;15.90;95560.00;;;;8302468;28;20289;-66
2023/08/06 00:58:11;;;;;;;7.05;4.10;;;;;15.80;95563.00;;;;8302923;28;20293;-66
2023/08/06 01:02:14;;;;;;;7.53;3.30;;;;;15.70;95568.00;;;;8302744;28;21048;-66
2023/08/06 01:06:24;;;;;;;5.18;3.40;;;;;15.50;95573.00;;;;8302593;28;20190;-67
2023/08/06 01:10:41;;;;;;;4.50;3.30;;;;;15.40;95566.00;;;;8301579;28;20313;-66
2023/08/06 01:14:53;;;;;;;8.05;3.25;;;;;15.30;95564.00;;;;8300924;28;20280;-66
2023/08/06 01:18:59;;;;;;;5.75;3.47;;;;;15.20;95558.00;;;;8302068;28;20277;-66
2023/08/06 01:23:06;;;;;;;14.88;3.47;;;;;15.10;95551.00;;;;8301962;28;20600;-67
2023/08/06 01:27:15;;;;;;;7.50;3.90;;;;;15.00;95541.00;;;;8300953;28;20281;-66
2023/08/06 01:31:22;;;;;;;7.60;3.97;;;;;15.00;95535.00;;;;8300916;28;20606;-67
2023/08/06 01:35:29;;;;;;;8.10;4.10;;;;;14.90;95532.00;;;;8301230;28;20277;-66
2023/08/06 01:39:47;;;;;;;9.75;3.97;;;;;14.80;95540.00;;;;8302426;28;20280;-66
2023/08/06 01:43:50;;;;;;;9.95;4.10;;;;;14.80;95535.00;;;;8301074;28;20282;-65
2023/08/06 01:47:56;;;;;;;6.55;3.80;;;;;14.80;95525.00;;;;8300925;28;20265;-65
2023/08/06 01:51:59;;;;;;;10.38;4.07;;;;;14.70;95522.00;;;;8300585;28;20281;-65
2023/08/06 01:56:04;;;;;;;7.60;4.32;;;;;14.70;95512.00;;;;8283138;28;20198;-64
2023/08/06 02:00:08;;;;;;;5.38;3.78;;;;;14.70;95510.00;;;;8301131;28;20197;-64
2023/08/06 02:04:11;;;;;;;5.97;3.92;;;;;14.60;95518.00;;;;8301339;28;20226;-65
2023/08/06 02:08:17;;;;;;;6.07;4.40;;;;;14.60;95515.00;;;;8300592;28;20226;-65
2023/08/06 02:12:21;;;;;;;12.18;4.63;;;;;14.60;95506.00;;;;8300161;28;20194;-65
2023/08/06 02:16:24;;;;;;;7.47;4.07;;;;;14.60;95491.00;;;;8300935;28;20277;-66
2023/08/06 02:20:31;;;;;;;6.90;3.80;;;;;14.60;95485.00;;;;8298112;28;20285;-66
2023/08/06 02:24:35;;;;;;;6.65;4.05;;;;;14.60;95489.00;;;;8300290;28;20205;-66
2023/08/06 02:28:39;;;;;;;8.40;4.15;;;;;14.60;95484.00;;;;8298996;28;20267;-66
2023/08/06 02:32:42;;;;;;;10.18;4.25;;;;;14.50;95488.00;;;;8298203;28;20293;-65
2023/08/06 02:36:47;;;;;;;13.57;4.43;;;;;14.50;95478.00;;;;8300113;28;20194;-66
2023/08/06 02:40:50;;;;;;;6.80;3.83;;;;;14.50;95473.00;;;;8299486;28;20236;-66
2023/08/06 02:44:55;;;;;;;9.45;4.30;;;;;14.50;95466.00;;;;8300219;28;20213;-66
2023/08/06 02:48:58;;;;;;;8.18;3.97;;;;;14.50;95476.00;;;;8282535;28;20320;-66
2023/08/06 02:53:01;;;;;;;9.77;4.70;;;;;14.60;95470.00;;;;8298208;28;20197;-66
2023/08/06 02:57:05;;;;;;;10.02;4.40;;;;;14.60;95469.00;;;;8298182;28;20292;-66
2023/08/06 03:01:10;;;;;;;11.60;4.50;;;;;14.60;95468.00;;;;8336582;22;20252;-68
2023/08/06 03:05:16;;;;;;;11.68;4.10;;;;;14.60;95466.00;;;;8367515;22;20229;-70
2023/08/06 03:09:19;;;;;;;8.18;4.15;;;;;14.60;95463.00;;;;8345490;28;20307;-70
2023/08/06 03:13:23;;;;;;;9.68;4.57;;;;;14.50;95461.00;;;;8345669;28;20189;-68
2023/08/06 03:17:30;;;;;;;10.60;4.28;;;;;14.50;95454.00;;;;8330019;28;20716;-72
2023/08/06 03:21:35;;;;;;;8.55;4.53;;;;;14.50;95465.00;;;;8342361;28;20261;-69
2023/08/06 03:25:51;;;;;;;9.35;4.70;;;;;14.50;95481.00;;;;8345993;28;20283;-68
2023/08/06 03:29:55;;;;;;;18.65;9.55;;;;;14.50;95478.00;;;;8346318;28;20698;-69
2023/08/06 03:34:03;;;;;;;10.27;4.68;;;;;14.50;95474.00;;;;8347742;28;20201;-69
2023/08/06 03:38:06;;;;;;;15.35;4.97;;;;;14.50;95458.00;;;;8354721;28;20205;-67
2023/08/06 03:42:09;;;;;;;10.27;4.35;;;;;14.50;95463.00;;;;8352669;28;20203;-71
2023/08/06 03:46:12;;;;;;;11.70;5.00;;;;;14.50;95450.00;;;;8351141;28;20983;-69
2023/08/06 03:50:22;;;;;;;11.18;5.07;;;;;14.50;95459.00;;;;8352685;28;20236;-68
2023/08/06 03:54:25;;;;;;;10.52;4.85;;;;;14.50;95463.00;;;;8352433;28;20350;-70
2023/08/06 03:58:29;;;;;;;10.73;5.13;;;;;14.50;95471.00;;;;8351851;28;20199;-67
2023/08/06 04:02:32;;;;;;;13.20;5.07;;;;;14.50;95479.00;;;;8344839;28;20233;-68
2023/08/06 04:06:38;;;;;;;11.80;4.75;;;;;14.50;95474.00;;;;8327054;28;20196;-72
2023/08/06 04:10:45;;;;;;;11.32;5.28;;;;;14.50;95478.00;;;;8333806;28;20732;-68
2023/08/06 04:14:49;;;;;;;12.93;5.45;;;;;14.50;95479.00;;;;8328997;28;20197;-71
2023/08/06 04:18:53;;;;;;;14.80;5.35;;;;;14.60;95471.00;;;;8318951;28;20211;-70
2023/08/06 04:23:00;;;;;;;9.95;4.72;;;;;14.70;95459.00;;;;8320787;28;20292;-67
2023/08/06 04:27:03;;;;;;;14.00;5.00;;;;;14.70;95451.00;;;;8309183;28;20313;-66
2023/08/06 04:31:07;;;;;;;9.68;4.90;;;;;14.80;95463.00;;;;8320481;28;20236;-69
2023/08/06 04:35:10;;;;;;;14.40;5.78;;;;;14.80;95466.00;;;;8321380;28;20193;-72
2023/08/06 04:39:14;;;;;;;13.50;4.85;;;;;14.80;95473.00;;;;8319706;28;20285;-67
2023/08/06 04:43:19;;;;;;;10.77;4.97;;;;;14.90;95463.00;;;;8321142;28;20674;-71
2023/08/06 04:47:22;;;;;;;9.23;4.80;;;;;14.90;95454.00;;;;8324426;28;20308;-66
2023/08/06 04:51:27;;;;;;;7.78;4.18;;;;;14.90;95448.00;;;;8320886;28;20231;-66
2023/08/06 04:55:33;;;;;;;8.13;4.68;;;;;14.90;95444.00;;;;8316707;28;20288;-71
2023/08/06 04:59:36;;;;;;;8.95;4.28;;;;;14.90;95451.00;;;;8318725;28;20205;-70
2023/08/06 05:03:39;;;;;;;8.48;4.88;;;;;14.90;95447.00;;;;8317846;28;20221;-72
2023/08/06 05:07:43;;;;;;;12.63;5.03;;;;;14.90;95436.00;;;;8328934;28;20205;-75
2023/08/06 05:11:50;;;;;;;8.38;4.47;;;;;14.90;95443.00;;;;8326660;28;20229;-68
2023/08/06 05:15:54;;;;;;;9.57;4.75;;;;;14.90;95449.00;;;;8311629;28;20537;-67
2023/08/06 05:20:00;;;;;;;11.00;5.50;;;;;15.00;95458.00;;;;8326178;28;20193;-71
2023/08/06 05:24:06;;;;;;;12.77;4.97;;;;;15.00;95443.00;;;;8319621;28;20205;-68
2023/08/06 05:28:10;;;;;;;12.75;5.57;;;;;15.10;95451.00;;;;8324142;28;20201;-76
2023/08/06 05:32:19;;;;;;;9.32;4.40;;;;;15.10;95453.00;;;;8319308;28;20270;-70
2023/08/06 05:36:22;;;;;;;12.00;5.35;;;;;15.20;95460.00;;;;8325882;28;20204;-71
2023/08/06 05:40:25;;;;;;;13.02;5.85;;;;;15.20;95451.00;;;;8331612;28;20715;-66
2023/08/06 05:44:34;;;;;;;15.27;5.25;;;;;15.40;95446.00;;;;8315658;28;20290;-69
2023/08/06 05:48:37;;;;;;;8.18;4.70;;;;;15.40;95453.00;;;;8330461;28;20214;-67
2023/08/06 05:52:43;;;;;;;11.48;5.43;;;;;15.60;95451.00;;;;8320152;28;20724;-68
2023/08/06 05:56:46;;;;;;;9.75;5.10;;;;;16.10;95441.00;;;;8298352;28;20205;-68
2023/08/06 06:00:51;;;;;;;9.73;5.10;;;;;16.30;95444.00;;;;8341316;28;20274;-67
2023/08/06 06:04:54;;;;;;;7.25;4.88;;;;;16.30;95441.00;;;;8319103;28;20233;-68
2023/08/06 06:08:57;;;;;;;9.10;5.55;;;;;16.20;95445.00;;;;8318408;28;20283;-68
2023/08/06 06:13:00;;;;;;;12.75;6.00;;;;;16.20;95449.00;;;;8330598;28;20562;-74
2023/08/06 06:17:08;;;;;;;10.55;5.57;;;;;16.10;95453.00;;;;8323256;28;20209;-67
2023/08/06 06:21:11;;;;;;;12.25;6.30;;;;;16.10;95449.00;;;;8336628;28;20208;-68
2023/08/06 06:25:15;;;;;;;12.40;6.47;;;;;16.40;95440.00;;;;8313231;28;20739;-68
2023/08/06 06:29:18;;;;;;;9.85;6.50;;;;;17.00;95436.00;;;;8316996;28;20229;-71
2023/08/06 06:33:22;;;;;;;8.70;6.47;;;;;17.30;95434.00;;;;8311122;28;20841;-71
2023/08/06 06:37:29;;;;;;;11.02;6.18;;;;;17.20;95433.00;;;;8315673;28;20224;-72
2023/08/06 06:41:35;;;;;;;9.68;6.35;;;;;17.00;95421.00;;;;8318642;28;20285;-71
2023/08/06 06:45:40;;;;;;;7.50;5.80;;;;;17.00;95423.00;;;;8322059;28;20296;-66
2023/08/06 06:49:48;;;;;;;9.25;6.00;;;;;17.20;95415.00;;;;8317001;28;20671;-66
2023/08/06 06:53:51;;;;;;;9.27;6.47;;;;;17.50;95417.00;;;;8320868;28;20364;-71
2023/08/06 06:57:54;;;;;;;8.38;6.00;;;;;17.90;95410.00;;;;8324880;28;20706;-75
2023/08/06 07:01:57;;;;;;;8.90;6.20;;;;;18.10;95409.00;;;;8314236;28;20613;-69
2023/08/06 07:06:03;;;;;;;6.85;5.53;;;;;18.30;95406.00;;;;8324722;28;20801;-67
2023/08/06 07:10:10;;;;;;;9.75;5.78;;;;;18.50;95406.00;;;;8320794;28;20256;-70
2023/08/06 07:14:14;;;;;;;5.97;5.05;;;;;18.50;95405.00;;;;8324977;28;20722;-67
2023/08/06 07:18:19;;;;;;;6.75;4.75;;;;;18.90;95413.00;;;;8321408;28;20261;-70
2023/08/06 07:22:23;;;;;;;7.53;4.93;;;;;19.10;95408.00;;;;8321105;28;20209;-68
2023/08/06 07:26:26;;;;;;;5.93;4.22;;;;;19.00;95408.00;;;;8313468;28;20199;-72
2023/08/06 07:30:30;;;;;;;4.55;4.10;;;;;18.90;95408.00;;;;8324840;28;20257;-66
2023/08/06 07:34:43;;;;;;;5.50;3.55;;;;;18.80;95400.00;;;;8309749;28;20219;-68
2023/08/06 07:38:55;;;;;;;7.53;3.55;;;;;18.80;95408.00;;;;8319778;28;20558;-74
2023/08/06 07:42:58;;;;;;;17.90;4.72;;;;;19.40;95399.00;;;;8314947;28;20286;-67
2023/08/06 07:47:04;;;;;;;5.25;3.70;;;;;19.10;95401.00;;;;8321836;28;20204;-66
2023/08/06 07:51:07;;;;;;;3.35;3.05;;;;;19.20;95402.00;;;;8318319;28;20213;-69
2023/08/06 07:55:12;;;;;;;4.82;3.28;;;;;19.50;95396.00;;;;8317629;28;20489;-67
2023/08/06 07:59:19;;;;;;;2.70;2.50;;;;;19.50;95395.00;;;;8315506;28;20293;-72
2023/08/06 08:03:22;;;;;;;3.90;3.08;;;;;19.60;95392.00;;;;8316361;28;20647;-72
2023/08/06 08:07:28;;;;;;;2.70;2.50;;;;;19.80;95388.00;;;;8324297;28;20819;-70
2023/08/06 08:11:34;;;;;;;3.58;2.80;;;;;19.70;95387.00;;;;8318543;28;20300;-67
2023/08/06 08:15:37;;;;;;;3.10;2.65;;;;;19.90;95382.00;;;;8318064;28;20387;-69
2023/08/06 08:19:43;;;;;;;3.33;2.63;;;;;20.80;95377.00;;;;8325686;28;20196;-75
2023/08/06 08:23:48;;;;;;;3.40;2.72;;;;;21.50;95376.00;;;;8323952;28;20237;-67
2023/08/06 08:27:55;;;;;;;2.50;2.30;;;;;22.10;95378.00;;;;8321005;28;20255;-69
2023/08/06 08:32:02;;;;;;;2.38;2.10;;;;;22.20;95366.00;;;;8317012;28;20224;-71
2023/08/06 08:36:09;;;;;;;2.33;2.15;;;;;22.70;95362.00;;;;8321308;28;20633;-67
2023/08/06 08:40:13;;;;;;;2.40;2.20;;;;;22.40;95365.00;;;;8321580;28;20205;-71
2023/08/06 08:44:18;;;;;;;3.28;1.90;;;;;21.40;95363.00;;;;8327651;28;20288;-71
2023/08/06 08:48:23;;;;;;;2.97;2.00;;;;;21.20;95365.00;;;;8322869;28;20235;-68
2023/08/06 08:52:30;;;;;;;2.10;1.95;;;;;22.30;95363.00;;;;8320984;28;20233;-69
2023/08/06 08:56:38;;;;;;;2.92;1.83;;;;;23.30;95364.00;;;;8311989;28;20197;-70
2023/08/06 09:00:44;;;;;;;1.80;1.70;;;;;24.00;95359.00;;;;8329377;28;20296;-70
2023/08/06 09:04:52;;;;;;;1.67;1.58;;;;;23.20;95362.00;;;;8320708;28;20264;-67
2023/08/06 09:09:03;;;;;;;2.08;1.90;;;;;22.90;95354.00;;;;8328957;28;20288;-70
2023/08/06 09:13:06;;;;;;;2.65;1.50;;;;;23.00;95369.00;;;;8337001;28;20228;-69
2023/08/06 09:17:11;;;;;;;2.58;2.15;;;;;23.90;95356.00;;;;8323291;28;20201;-69
2023/08/06 09:21:19;;;;;;;2.47;1.50;;;;;24.00;95360.00;;;;8322545;28;20197;-70
2023/08/06 09:25:25;;;;;;;1.80;1.63;;;;;22.80;95361.00;;;;8313863;28;20288;-74
2023/08/06 09:29:32;;;;;;;2.15;1.67;;;;;21.10;95369.00;;;;8321104;28;20233;-68
2023/08/06 09:33:39;;;;;;;1.30;1.30;;;;;19.80;95369.00;;;;8317387;28;20225;-68
2023/08/06 09:37:42;;;;;;;1.75;1.20;;;;;19.10;95390.00;;;;8326163;28;20202;-73
2023/08/06 09:41:49;;;;;;;0.90;0.90;;;;;18.30;95373.00;;;;8320719;28;20628;-69
2023/08/06 09:45:52;;;;;;;1.95;0.90;;;;;17.90;95371.00;;;;8314295;28;20275;-69
2023/08/06 09:49:57;;;;;;;1.08;1.00;;;;;18.40;95364.00;;;;8326760;28;20363;-70
2023/08/06 09:54:02;;;;;;;1.17;1.08;;;;;19.50;95364.00;;;;8320962;28;20261;-71
2023/08/06 09:58:25;;;;;;;1.75;1.10;;;;;20.50;95360.00;;;;8311201;28;20615;-69
2023/08/06 10:02:28;;;;;;;1.45;1.13;;;;;22.10;95367.00;;;;8322195;28;20227;-67
2023/08/06 10:06:36;;;;;;;1.50;1.40;;;;;22.60;95365.00;;;;8318801;28;20197;-70
2023/08/06 10:10:45;;;;;;;9.25;1.77;;;;;21.30;95396.00;;;;8323883;28;20240;-72
2023/08/06 10:14:50;;;;;;;7.93;1.90;;;;;18.90;95378.00;;;;8325843;28;20291;-66
2023/08/06 10:18:55;;;;;;;1.67;1.40;;;;;17.70;95354.00;;;;8332211;28;20630;-68
2023/08/06 10:23:03;;;;;;;3.08;1.05;;;;;17.00;95362.00;;;;8326365;28;20241;-69
2023/08/06 10:27:09;;;;;;;1.23;1.13;;;;;16.90;95352.00;;;;8325445;28;20209;-68
2023/08/06 10:31:13;;;;;;;1.40;1.30;;;;;17.40;95347.00;;;;8326426;28;20323;-70
2023/08/06 10:35:34;;;;;;;1.85;1.30;;;;;18.80;95341.00;;;;8335824;28;20622;-69
2023/08/06 10:39:52;;;;;;;1.52;1.40;;;;;19.00;95358.00;;;;8314729;28;20751;-69
2023/08/06 10:44:07;;;;;;;1.30;1.20;;;;;17.90;95356.00;;;;8319319;28;20958;-67
2023/08/06 10:48:11;;;;;;;1.45;1.15;;;;;17.60;95347.00;;;;8323599;28;20287;-66
2023/08/06 10:52:14;;;;;;;1.42;1.00;;;;;18.30;95345.00;;;;8321393;28;20221;-71
2023/08/06 10:56:21;;;;;;;1.00;1.00;;;;;19.10;95348.00;;;;8320513;28;20702;-71
2023/08/06 11:00:27;;;;;;;1.30;0.88;;;;;18.90;95341.00;;;;8326118;28;20251;-66
2023/08/06 11:04:37;;;;;;;1.02;0.90;;;;;18.70;95339.00;;;;8325455;28;20223;-65
2023/08/06 11:08:47;;;;;;;0.85;0.85;;;;;18.50;95344.00;;;;8327613;28;20190;-67
2023/08/06 11:12:55;;;;;;;2.00;1.90;;;;;18.20;95336.00;;;;8325980;28;20233;-71
2023/08/06 11:17:00;;;;;;;0.98;0.98;;;;;18.30;95330.00;;;;8310277;28;20218;-69
2023/08/06 11:21:03;;;;;;;0.90;0.90;;;;;18.10;95354.00;;;;8321315;28;20197;-67
2023/08/06 11:25:08;;;;;;;2.88;1.13;;;;;17.50;95344.00;;;;8306749;28;20301;-68
2023/08/06 11:29:12;;;;;;;2.17;0.90;;;;;17.30;95334.00;;;;8322360;28;20280;-66
2023/08/06 11:33:20;;;;;;;1.85;1.00;;;;;17.60;95342.00;;;;8306507;28;20257;-69
2023/08/06 11:37:27;;;;;;;1.35;1.00;;;;;17.90;95322.00;;;;8319369;28;20761;-68
2023/08/06 11:41:30;;;;;;;2.03;0.82;;;;;18.20;95337.00;;;;8320620;28;20196;-70
2023/08/06 11:45:37;;;;;;;1.40;0.80;;;;;18.60;95330.00;;;;8323070;28;20239;-64
2023/08/06 11:49:44;;;;;;;1.10;0.80;;;;;19.10;95336.00;;;;8317491;28;20223;-67
2023/08/06 11:53:50;;;;;;;1.80;0.77;;;;;19.70;95330.00;;;;8314109;28;20252;-70
2023/08/06 11:57:56;;;;;;;0.70;0.70;;;;;20.20;95331.00;;;;8317023;28;20212;-66
2023/08/06 12:02:01;;;;;;;0.75;0.70;;;;;20.00;95314.00;;;;8312756;28;20242;-68
2023/08/06 12:06:05;;;;;;;0.70;0.70;;;;;20.90;95306.00;;;;8320365;28;20196;-68
2023/08/06 12:10:09;;;;;;;0.90;0.90;;;;;21.70;95315.00;;;;8329212;28;20293;-68
2023/08/06 12:14:14;;;;;;;0.70;0.70;;;;;22.10;95324.00;;;;8325679;28;20272;-69
2023/08/06 12:18:18;;;;;;;0.60;0.60;;;;;21.60;95318.00;;;;8323704;28;20196;-69
2023/08/06 12:22:25;;;;;;;0.77;0.77;;;;;20.80;95322.00;;;;8322679;28;20770;-70
2023/08/06 12:26:31;;;;;;;0.60;0.60;;;;;20.10;95323.00;;;;8322489;28;20520;-70
2023/08/06 12:30:34;;;;;;;0.88;0.65;;;;;19.60;95350.00;;;;8328337;28;20312;-66
2023/08/06 12:34:40;;;;;;;1.02;0.90;;;;;18.10;95350.00;;;;8325476;28;20237;-67
2023/08/06 12:39:02;;;;;;;0.57;0.57;;;;;17.40;95361.00;;;;8322338;28;20189;-66
2023/08/06 12:43:05;;;;;;;1.17;0.77;;;;;17.00;95352.00;;;;8323499;28;20304;-68
2023/08/06 12:47:09;;;;;;;0.60;0.60;;;;;16.90;95359.00;;;;8320523;28;20285;-69
2023/08/06 12:51:16;;;;;;;2.67;0.90;;;;;16.90;95357.00;;;;8331161;28;20205;-70
2023/08/06 12:55:19;;;;;;;0.80;0.80;;;;;17.40;95358.00;;;;8326251;28;20197;-66
2023/08/06 12:59:23;;;;;;;0.98;0.73;;;;;17.80;95351.00;;;;8329051;28;20212;-68
2023/08/06 13:03:26;;;;;;;2.22;0.77;;;;;18.20;95351.00;;;;8333915;28;20225;-70
2023/08/06 13:07:33;;;;;;;0.63;0.63;;;;;18.20;95338.00;;;;8340632;28;20233;-70
2023/08/06 13:11:41;;;;;;;0.70;0.70;;;;;17.90;95344.00;;;;8322822;28;20212;-69
2023/08/06 13:15:44;;;;;;;0.60;0.60;;;;;17.70;95341.00;;;;8319921;28;20555;-70
2023/08/06 13:19:47;;;;;;;0.85;0.85;;;;;17.60;95348.00;;;;8316578;28;20197;-71
2023/08/06 13:23:53;;;;;;;0.82;0.60;;;;;17.80;95346.00;;;;8324207;28;20205;-71
2023/08/06 13:27:56;;;;;;;2.55;0.70;;;;;17.90;95346.00;;;;8320002;28;20210;-71
2023/08/06 13:32:03;;;;;;;0.50;0.50;;;;;17.90;95345.00;;;;8320429;28;20316;-71
2023/08/06 13:36:06;;;;;;;0.73;0.70;;;;;17.70;95352.00;;;;8329658;28;20784;-71
2023/08/06 13:40:14;;;;;;;0.70;0.70;;;;;17.90;95353.00;;;;8330207;28;20201;-72
2023/08/06 13:44:19;;;;;;;0.70;0.70;;;;;18.20;95347.00;;;;8321669;28;20201;-71
2023/08/06 13:48:22;;;;;;;0.88;0.50;;;;;18.30;95356.00;;;;8333477;28;20335;-71
2023/08/06 13:52:27;;;;;;;2.53;0.65;;;;;18.10;95356.00;;;;8323545;28;20324;-72
2023/08/06 13:56:37;;;;;;;0.47;0.47;;;;;17.70;95358.00;;;;8320109;28;20205;-71
2023/08/06 14:00:40;;;;;;;0.95;0.60;;;;;17.60;95355.00;;;;8320684;28;20261;-71
2023/08/06 14:04:46;;;;;;;0.57;0.57;;;;;17.90;95359.00;;;;8326828;28;20553;-70
2023/08/06 14:08:53;;;;;;;0.65;0.65;;;;;17.90;95375.00;;;;8317137;28;20231;-71
2023/08/06 14:12:58;;;;;;;0.60;0.60;;;;;17.80;95374.00;;;;8317093;28;20331;-70
2023/08/06 14:17:12;;;;;;;0.60;0.60;;;;;17.20;95391.00;;;;8311435;28;20202;-68
2023/08/06 14:21:16;;;;;;;0.63;0.63;;;;;16.80;95393.00;;;;8317022;28;20231;-65
2023/08/06 14:25:19;;;;;;;0.60;0.60;;;;;16.90;95392.00;;;;8319674;28;20204;-66
2023/08/06 14:29:32;;;;;;;0.60;0.60;;;;;16.80;95407.00;;;;8329190;28;20208;-66
2023/08/06 14:33:35;;;;;;;0.60;0.60;;;;;16.90;95392.00;;;;8331947;28;20229;-66
2023/08/06 14:37:39;;;;;;;0.60;0.60;;;;;16.50;95421.00;;;;8325849;28;20816;-66
2023/08/06 14:41:43;;;;;;;0.50;0.50;;;;;16.30;95435.00;;;;8329810;28;20311;-67
2023/08/06 14:45:48;;;;;;;0.60;0.60;;;;;16.10;95435.00;;;;8324806;28;20316;-67
2023/08/06 14:49:56;;;;;;;0.60;0.60;;;;;15.90;95428.00;;;;8324830;28;20213;-67
2023/08/06 14:54:01;;;;;;;0.65;0.65;;;;;15.80;95433.00;;;;8319355;28;20889;-67
2023/08/06 14:58:05;;;;;;;0.85;0.85;;;;;15.70;95448.00;;;;8321852;28;20331;-66
2023/08/06 15:02:12;;;;;;;0.70;0.70;;;;;15.60;95445.00;;;;8318035;28;20565;-67
2023/08/06 15:06:17;;;;;;;0.80;0.80;;;;;15.60;95463.00;;;;8300588;28;20209;-67
2023/08/06 15:10:23;;;;;;;0.90;0.90;;;;;15.50;95470.00;;;;8317334;28;20229;-66
2023/08/06 15:14:33;;;;;;;1.00;0.90;;;;;15.30;95473.00;;;;8317755;28;20205;-67
2023/08/06 15:18:37;;;;;;;0.80;0.80;;;;;15.20;95474.00;;;;8312791;28;20280;-66
2023/08/06 15:22:41;;;;;;;1.08;0.93;;;;;15.10;95488.00;;;;8323035;28;20236;-67
2023/08/06 15:26:44;;;;;;;1.10;1.02;;;;;15.00;95487.00;;;;8311282;28;20204;-67
2023/08/06 15:30:53;;;;;;;0.98;0.98;;;;;15.00;95489.00;;;;8326037;28;20201;-66
2023/08/06 15:34:58;;;;;;;0.90;0.90;;;;;15.00;95495.00;;;;8319594;28;20232;-66
2023/08/06 15:39:04;;;;;;;1.40;1.30;;;;;15.10;95510.00;;;;8318573;28;20205;-66
2023/08/06 15:43:07;;;;;;;1.58;1.48;;;;;15.10;95503.00;;;;8326872;28;20197;-66
2023/08/06 15:47:14;;;;;;;3.00;1.40;;;;;15.10;95520.00;;;;8324579;28;20197;-68
2023/08/06 15:51:22;;;;;;;1.90;1.50;;;;;14.90;95539.00;;;;8326889;28;20189;-67
2023/08/06 15:55:27;;;;;;;1.48;1.20;;;;;14.70;95525.00;;;;8319574;28;20355;-67
2023/08/06 15:59:33;;;;;;;3.17;1.50;;;;;14.60;95527.00;;;;8322800;28;20205;-68
2023/08/06 16:03:39;;;;;;;3.00;1.60;;;;;14.50;95519.00;;;;8322423;28;20252;-66
2023/08/06 16:07:55;;;;;;;1.70;1.60;;;;;14.50;95528.00;;;;8317056;28;20828;-65
2023/08/06 16:11:58;;;;;;;5.38;1.80;;;;;14.40;95531.00;;;;8319118;28;20208;-66
2023/08/06 16:16:05;;;;;;;2.35;1.70;;;;;14.50;95541.00;;;;8322599;28;20672;-66
2023/08/06 16:20:09;;;;;;;1.92;1.80;;;;;14.40;95529.00;;;;8324356;28;20198;-66
2023/08/06 16:24:13;;;;;;;2.30;2.10;;;;;14.50;95533.00;;;;8323857;28;20216;-67
2023/08/06 16:28:17;;;;;;;2.20;2.00;;;;;14.60;95535.00;;;;8315554;28;20206;-67
2023/08/06 16:32:20;;;;;;;2.83;1.67;;;;;14.70;95539.00;;;;8316386;28;20216;-67
2023/08/06 16:36:25;;;;;;;2.17;1.98;;;;;14.60;95538.00;;;;8325432;28;20312;-67
2023/08/06 16:40:33;;;;;;;1.92;1.73;;;;;14.60;95537.00;;;;8319976;28;20211;-66
2023/08/06 16:44:36;;;;;;;1.80;1.70;;;;;14.60;95551.00;;;;8311273;28;20210;-68
2023/08/06 16:48:44;;;;;;;1.70;1.60;;;;;14.60;95539.00;;;;8330776;28;20288;-68
2023/08/06 16:52:47;;;;;;;2.50;1.40;;;;;14.60;95556.00;;;;8309783;28;20280;-68
2023/08/06 16:56:52;;;;;;;3.85;1.55;;;;;14.60;95554.00;;;;8325862;28;20307;-67
2023/08/06 17:00:59;;;;;;;1.30;1.30;;;;;14.60;95559.00;;;;8323867;28;20284;-67
2023/08/06 17:05:10;;;;;;;3.42;1.40;;;;;14.60;95564.00;;;;8325526;28;20583;-69
2023/08/06 17:09:16;;;;;;;1.90;1.60;;;;;14.60;95569.00;;;;8307646;28;20255;-66
2023/08/06 17:13:20;;;;;;;2.15;1.20;;;;;14.60;95576.00;;;;8324828;28;20307;-67
2023/08/06 17:17:28;;;;;;;1.10;1.10;;;;;14.60;95567.00;;;;8327850;28;20196;-67
2023/08/06 17:21:34;;;;;;;1.25;1.10;;;;;14.70;95550.00;;;;8323138;28;20252;-68
2023/08/06 17:25:37;;;;;;;1.10;1.10;;;;;14.70;95556.00;;;;8325516;28;20247;-67
2023/08/06 17:29:47;;;;;;;1.02;1.02;;;;;14.80;95560.00;;;;8321844;28;20237;-69
2023/08/06 17:33:51;;;;;;;1.40;1.30;;;;;14.80;95575.00;;;;8317665;28;20822;-69
2023/08/06 17:37:56;;;;;;;1.33;1.20;;;;;14.90;95577.00;;;;8330503;28;20202;-68
2023/08/06 17:42:03;;;;;;;1.30;1.20;;;;;15.00;95580.00;;;;8327560;28;20196;-70
2023/08/06 17:46:07;;;;;;;2.15;1.00;;;;;15.00;95579.00;;;;8317148;28;20205;-68
2023/08/06 17:50:14;;;;;;;1.00;1.00;;;;;15.00;95588.00;;;;8324023;28;20205;-74
2023/08/06 17:54:17;;;;;;;2.72;1.10;;;;;15.00;95582.00;;;;8315812;28;20649;-72
2023/08/06 17:58:23;;;;;;;1.73;1.63;;;;;15.00;95585.00;;;;8320906;28;20206;-69
2023/08/06 18:02:27;;;;;;;1.10;1.10;;;;;15.00;95596.00;;;;8322551;28;20646;-71
2023/08/06 18:06:32;;;;;;;1.13;1.13;;;;;14.90;95584.00;;;;8319917;28;20205;-70
2023/08/06 18:10:37;;;;;;;2.15;1.20;;;;;14.90;95597.00;;;;8320931;28;20312;-69
2023/08/06 18:14:41;;;;;;;1.15;1.15;;;;;14.80;95597.00;;;;8325148;28;20225;-72
2023/08/06 18:18:46;;;;;;;2.05;1.17;;;;;14.70;95591.00;;;;8320251;28;20288;-68
2023/08/06 18:22:49;;;;;;;1.60;1.50;;;;;14.70;95599.00;;;;8332870;28;20232;-68
2023/08/06 18:26:54;;;;;;;1.15;1.10;;;;;14.60;95610.00;;;;8321683;28;20299;-72
2023/08/06 18:30:58;;;;;;;1.35;1.17;;;;;14.30;95607.00;;;;8319522;28;20838;-70
2023/08/06 18:35:03;;;;;;;1.20;1.20;;;;;14.20;95623.00;;;;8316378;28;20638;-72
2023/08/06 18:39:07;;;;;;;1.10;1.10;;;;;14.10;95614.00;;;;8307573;28;20890;-69
2023/08/06 18:43:10;;;;;;;1.92;1.23;;;;;14.00;95612.00;;;;8321681;28;20205;-70
2023/08/06 18:47:16;;;;;;;1.50;1.20;;;;;14.00;95622.00;;;;8317452;28;20887;-67
2023/08/06 18:51:20;;;;;;;1.27;1.23;;;;;14.00;95623.00;;;;8321739;28;20205;-69
2023/08/06 18:55:23;;;;;;;1.10;1.10;;;;;13.90;95621.00;;;;8316504;28;20229;-70
2023/08/06 18:59:30;;;;;;;1.58;1.10;;;;;13.90;95631.00;;;;8314250;28;20706;-73
2023/08/06 19:03:37;;;;;;;1.00;1.00;;;;;13.90;95627.00;;;;8315625;28;20315;-69
2023/08/06 19:07:43;;;;;;;1.25;1.20;;;;;14.00;95649.00;;;;8326185;28;20201;-71
2023/08/06 19:11:46;;;;;;;1.30;1.17;;;;;13.90;95655.00;;;;8314829;28;20203;-69
2023/08/06 19:15:51;;;;;;;1.25;1.23;;;;;13.80;95656.00;;;;8307610;28;20675;-70
2023/08/06 19:19:54;;;;;;;3.60;2.08;;;;;13.80;95657.00;;;;8325968;28;20205;-68
2023/08/06 19:23:59;;;;;;;1.30;1.20;;;;;13.80;95672.00;;;;8315404;28;20267;-70
2023/08/06 19:28:02;;;;;;;1.40;1.30;;;;;13.70;95661.00;;;;8317312;28;20984;-71
2023/08/06 19:32:07;;;;;;;1.38;1.35;;;;;13.70;95659.00;;;;8322889;28;20207;-70
2023/08/06 19:36:13;;;;;;;1.58;1.30;;;;;13.70;95653.00;;;;8322293;28;20224;-68
2023/08/06 19:40:23;;;;;;;1.27;1.27;;;;;13.70;95656.00;;;;8317163;28;20208;-70
2023/08/06 19:44:26;;;;;;;1.75;1.20;;;;;13.70;95654.00;;;;8319594;28;20255;-71
2023/08/06 19:48:32;;;;;;;2.40;1.30;;;;;13.70;95648.00;;;;8316571;28;20249;-71
2023/08/06 19:52:38;;;;;;;1.83;1.40;;;;;13.60;95659.00;;;;8304579;28;20300;-72
2023/08/06 19:56:43;;;;;;;1.10;1.10;;;;;13.60;95657.00;;;;8312999;28;20735;-73
2023/08/06 20:00:46;;;;;;;1.23;1.10;;;;;13.60;95659.00;;;;8312744;28;20189;-69
2023/08/06 20:04:57;;;;;;;1.08;0.95;;;;;13.50;95664.00;;;;8305022;28;20279;-71
2023/08/06 20:09:02;;;;;;;1.23;1.23;;;;;13.50;95653.00;;;;8312370;28;20198;-69
2023/08/06 20:13:08;;;;;;;1.00;1.00;;;;;13.50;95647.00;;;;8316529;28;20209;-71
2023/08/06 20:17:12;;;;;;;1.08;1.08;;;;;13.50;95656.00;;;;8334081;28;20229;-72
2023/08/06 20:21:16;;;;;;;0.90;0.90;;;;;13.50;95660.00;;;;8328533;28;20202;-72
2023/08/06 20:25:19;;;;;;;1.17;1.17;;;;;13.50;95670.00;;;;8327713;28;20202;-70